sensor_id;sensor_type;location;lat;lon;timestamp;P1;durP1;ratioP1;P2;durP2;ratioP2
33987;SDS011;37428;53.580;-1.666;2023-03-01T00:02:32;11.85;;;5.03;;
33987;SDS011;37428;53.580;-1.666;2023-03-01T00:05:37;14.43;;;7.70;;
33987;SDS011;37428;53.580;-1.666;2023-03-01T00:08:47;19.40;;;6.97;;
33987;SDS011;37428;53.580;-1.666;2023-03-01T00:11:56;10.27;;;6.50;;
33987;SDS011;37428;53.580;-1.666;2023-03-01T00:15:00;13.30;;;7.47;;
33987;SDS011;37428;53.580;-1.666;2023-03-01T00:18:16;11.18;;;6.30;;
33987;SDS011;37428;53.580;-1.666;2023-03-01T00:21:18;12.95;;;7.80;;
33987;SDS011;37428;53.580;-1.666;2023-03-01T00:24:24;12.65;;;8.05;;
33987;SDS011;37428;53.580;-1.666;2023-03-01T00:27:27;15.43;;;8.25;;
33987;SDS011;37428;53.580;-1.666;2023-03-01T00:30:31;11.32;;;7.32;;
33987;SDS011;37428;53.580;-1.666;2023-03-01T00:33:34;8.30;;;5.63;;
33987;SDS011;37428;53.580;-1.666;2023-03-01T00:36:38;6.05;;;3.25;;
33987;SDS011;37428;53.580;-1.666;2023-03-01T00:39:43;5.32;;;3.25;;
33987;SDS011;37428;53.580;-1.666;2023-03-01T00:42:45;5.60;;;4.10;;
33987;SDS011;37428;53.580;-1.666;2023-03-01T00:46:01;6.93;;;5.15;;
33987;SDS011;37428;53.580;-1.666;2023-03-01T00:49:04;8.00;;;5.65;;
33987;SDS011;37428;53.580;-1.666;2023-03-01T00:52:08;7.57;;;5.88;;
33987;SDS011;37428;53.580;-1.666;2023-03-01T00:55:13;9.00;;;5.05;;
33987;SDS011;37428;53.580;-1.666;2023-03-01T00:58:36;9.85;;;5.32;;
33987;SDS011;37428;53.580;-1.666;2023-03-01T01:01:41;8.93;;;4.95;;
33987;SDS011;37428;53.580;-1.666;2023-03-01T01:04:43;8.15;;;3.83;;
33987;SDS011;37428;53.580;-1.666;2023-03-01T01:07:45;7.68;;;4.55;;
33987;SDS011;37428;53.580;-1.666;2023-03-01T01:13:51;7.38;;;3.33;;
33987;SDS011;37428;53.580;-1.666;2023-03-01T01:19:57;3.65;;;3.03;;
33987;SDS011;37428;53.580;-1.666;2023-03-01T01:22:59;4.50;;;2.78;;
33987;SDS011;37428;53.580;-1.666;2023-03-01T01:26:07;5.20;;;2.88;;
33987;SDS011;37428;53.580;-1.666;2023-03-01T01:29:11;6.30;;;2.80;;
33987;SDS011;37428;53.580;-1.666;2023-03-01T01:32:13;5.38;;;2.85;;
33987;SDS011;37428;53.580;-1.666;2023-03-01T01:35:16;8.65;;;3.08;;
33987;SDS011;37428;53.580;-1.666;2023-03-01T01:38:19;7.75;;;3.08;;
33987;SDS011;37428;53.580;-1.666;2023-03-01T01:41:25;5.80;;;3.00;;
33987;SDS011;37428;53.580;-1.666;2023-03-01T01:44:29;3.03;;;2.80;;
33987;SDS011;37428;53.580;-1.666;2023-03-01T01:47:31;3.92;;;2.70;;
33987;SDS011;37428;53.580;-1.666;2023-03-01T01:50:34;4.78;;;2.88;;
33987;SDS011;37428;53.580;-1.666;2023-03-01T01:53:41;4.80;;;3.10;;
33987;SDS011;37428;53.580;-1.666;2023-03-01T01:56:48;5.28;;;2.78;;
33987;SDS011;37428;53.580;-1.666;2023-03-01T01:59:54;4.90;;;2.50;;
33987;SDS011;37428;53.580;-1.666;2023-03-01T02:03:01;4.05;;;2.47;;
33987;SDS011;37428;53.580;-1.666;2023-03-01T02:06:12;5.07;;;2.10;;
33987;SDS011;37428;53.580;-1.666;2023-03-01T02:09:20;5.00;;;1.90;;
33987;SDS011;37428;53.580;-1.666;2023-03-01T02:12:28;2.88;;;1.88;;
33987;SDS011;37428;53.580;-1.666;2023-03-01T02:15:32;3.55;;;1.83;;
33987;SDS011;37428;53.580;-1.666;2023-03-01T02:18:35;2.67;;;1.38;;
33987;SDS011;37428;53.580;-1.666;2023-03-01T02:21:44;3.78;;;1.42;;
33987;SDS011;37428;53.580;-1.666;2023-03-01T02:25:10;3.47;;;1.40;;
33987;SDS011;37428;53.580;-1.666;2023-03-01T02:28:28;5.65;;;1.90;;
33987;SDS011;37428;53.580;-1.666;2023-03-01T02:31:34;7.15;;;1.73;;
33987;SDS011;37428;53.580;-1.666;2023-03-01T02:34:46;4.93;;;2.17;;
33987;SDS011;37428;53.580;-1.666;2023-03-01T02:37:49;2.83;;;2.08;;
33987;SDS011;37428;53.580;-1.666;2023-03-01T02:43:56;4.35;;;2.95;;
33987;SDS011;37428;53.580;-1.666;2023-03-01T02:47:00;5.93;;;3.92;;
33987;SDS011;37428;53.580;-1.666;2023-03-01T02:50:09;8.95;;;4.43;;
33987;SDS011;37428;53.580;-1.666;2023-03-01T02:53:23;9.95;;;4.50;;
33987;SDS011;37428;53.580;-1.666;2023-03-01T02:56:33;7.32;;;5.28;;
33987;SDS011;37428;53.580;-1.666;2023-03-01T02:59:38;14.15;;;8.25;;
33987;SDS011;37428;53.580;-1.666;2023-03-01T03:02:48;9.57;;;7.65;;
33987;SDS011;37428;53.580;-1.666;2023-03-01T03:05:52;10.60;;;7.88;;
33987;SDS011;37428;53.580;-1.666;2023-03-01T03:08:54;12.25;;;7.55;;
33987;SDS011;37428;53.580;-1.666;2023-03-01T03:11:56;13.23;;;6.28;;
33987;SDS011;37428;53.580;-1.666;2023-03-01T03:15:01;12.63;;;6.50;;
33987;SDS011;37428;53.580;-1.666;2023-03-01T03:18:09;7.05;;;4.60;;
33987;SDS011;37428;53.580;-1.666;2023-03-01T03:21:13;7.10;;;5.18;;
33987;SDS011;37428;53.580;-1.666;2023-03-01T03:24:18;10.50;;;7.57;;
33987;SDS011;37428;53.580;-1.666;2023-03-01T03:27:21;10.75;;;6.40;;
33987;SDS011;37428;53.580;-1.666;2023-03-01T03:30:27;12.70;;;9.15;;
33987;SDS011;37428;53.580;-1.666;2023-03-01T03:33:31;16.83;;;10.32;;
33987;SDS011;37428;53.580;-1.666;2023-03-01T03:36:34;19.23;;;8.82;;
33987;SDS011;37428;53.580;-1.666;2023-03-01T03:39:37;12.13;;;9.05;;
33987;SDS011;37428;53.580;-1.666;2023-03-01T03:42:39;12.25;;;8.45;;
33987;SDS011;37428;53.580;-1.666;2023-03-01T03:45:43;10.95;;;7.38;;
33987;SDS011;37428;53.580;-1.666;2023-03-01T03:48:45;10.57;;;7.07;;
33987;SDS011;37428;53.580;-1.666;2023-03-01T03:51:47;16.17;;;7.28;;
33987;SDS011;37428;53.580;-1.666;2023-03-01T03:54:52;14.20;;;7.47;;
33987;SDS011;37428;53.580;-1.666;2023-03-01T03:58:01;8.43;;;5.25;;
33987;SDS011;37428;53.580;-1.666;2023-03-01T04:01:08;7.32;;;4.70;;
33987;SDS011;37428;53.580;-1.666;2023-03-01T04:04:10;6.88;;;4.30;;
33987;SDS011;37428;53.580;-1.666;2023-03-01T04:07:28;8.57;;;4.93;;
33987;SDS011;37428;53.580;-1.666;2023-03-01T04:10:38;15.23;;;6.13;;
33987;SDS011;37428;53.580;-1.666;2023-03-01T04:13:48;10.57;;;6.13;;
33987;SDS011;37428;53.580;-1.666;2023-03-01T04:17:06;11.48;;;7.63;;
33987;SDS011;37428;53.580;-1.666;2023-03-01T04:20:09;12.75;;;8.15;;
33987;SDS011;37428;53.580;-1.666;2023-03-01T04:23:17;9.13;;;5.90;;
33987;SDS011;37428;53.580;-1.666;2023-03-01T04:26:21;7.03;;;5.60;;
33987;SDS011;37428;53.580;-1.666;2023-03-01T04:29:24;16.65;;;7.25;;
33987;SDS011;37428;53.580;-1.666;2023-03-01T04:32:31;11.80;;;6.57;;
33987;SDS011;37428;53.580;-1.666;2023-03-01T04:35:47;13.50;;;6.43;;
33987;SDS011;37428;53.580;-1.666;2023-03-01T04:38:51;14.63;;;6.45;;
33987;SDS011;37428;53.580;-1.666;2023-03-01T04:41:53;8.18;;;6.35;;
33987;SDS011;37428;53.580;-1.666;2023-03-01T04:45:04;11.73;;;6.47;;
33987;SDS011;37428;53.580;-1.666;2023-03-01T04:48:18;6.93;;;3.65;;
33987;SDS011;37428;53.580;-1.666;2023-03-01T04:51:29;6.32;;;3.92;;
33987;SDS011;37428;53.580;-1.666;2023-03-01T04:54:37;6.18;;;3.88;;
33987;SDS011;37428;53.580;-1.666;2023-03-01T04:57:41;9.77;;;4.63;;
33987;SDS011;37428;53.580;-1.666;2023-03-01T05:00:44;8.40;;;5.47;;
33987;SDS011;37428;53.580;-1.666;2023-03-01T05:03:50;7.50;;;5.40;;
33987;SDS011;37428;53.580;-1.666;2023-03-01T05:06:54;6.70;;;4.82;;
33987;SDS011;37428;53.580;-1.666;2023-03-01T05:09:58;6.18;;;4.45;;
33987;SDS011;37428;53.580;-1.666;2023-03-01T05:13:02;5.68;;;3.90;;
33987;SDS011;37428;53.580;-1.666;2023-03-01T05:16:05;6.68;;;3.42;;
33987;SDS011;37428;53.580;-1.666;2023-03-01T05:19:12;8.93;;;3.70;;
33987;SDS011;37428;53.580;-1.666;2023-03-01T05:22:15;9.45;;;3.65;;
33987;SDS011;37428;53.580;-1.666;2023-03-01T05:25:32;7.15;;;3.05;;
33987;SDS011;37428;53.580;-1.666;2023-03-01T05:29:00;10.15;;;3.63;;
33987;SDS011;37428;53.580;-1.666;2023-03-01T05:32:04;5.20;;;2.75;;
33987;SDS011;37428;53.580;-1.666;2023-03-01T05:35:08;6.30;;;4.43;;
33987;SDS011;37428;53.580;-1.666;2023-03-01T05:38:13;5.78;;;3.15;;
33987;SDS011;37428;53.580;-1.666;2023-03-01T05:41:16;5.95;;;3.75;;
33987;SDS011;37428;53.580;-1.666;2023-03-01T05:44:24;5.80;;;3.00;;
33987;SDS011;37428;53.580;-1.666;2023-03-01T05:47:48;13.20;;;3.30;;
33987;SDS011;37428;53.580;-1.666;2023-03-01T05:50:58;8.73;;;4.00;;
33987;SDS011;37428;53.580;-1.666;2023-03-01T05:54:02;8.20;;;2.22;;
33987;SDS011;37428;53.580;-1.666;2023-03-01T05:57:06;9.93;;;2.67;;
33987;SDS011;37428;53.580;-1.666;2023-03-01T06:00:17;9.85;;;3.00;;
33987;SDS011;37428;53.580;-1.666;2023-03-01T06:03:41;9.77;;;3.15;;
33987;SDS011;37428;53.580;-1.666;2023-03-01T06:06:44;9.73;;;2.30;;
33987;SDS011;37428;53.580;-1.666;2023-03-01T06:09:54;6.25;;;3.10;;
33987;SDS011;37428;53.580;-1.666;2023-03-01T06:12:56;6.88;;;4.13;;
33987;SDS011;37428;53.580;-1.666;2023-03-01T06:16:00;14.48;;;5.78;;
33987;SDS011;37428;53.580;-1.666;2023-03-01T06:19:20;17.90;;;8.73;;
33987;SDS011;37428;53.580;-1.666;2023-03-01T06:25:57;7.90;;;5.15;;
33987;SDS011;37428;53.580;-1.666;2023-03-01T06:29:00;8.68;;;5.13;;
33987;SDS011;37428;53.580;-1.666;2023-03-01T06:32:02;8.20;;;4.10;;
33987;SDS011;37428;53.580;-1.666;2023-03-01T06:35:06;11.38;;;5.35;;
33987;SDS011;37428;53.580;-1.666;2023-03-01T06:38:12;12.80;;;6.95;;
33987;SDS011;37428;53.580;-1.666;2023-03-01T06:41:15;11.27;;;6.72;;
33987;SDS011;37428;53.580;-1.666;2023-03-01T06:44:24;12.60;;;6.28;;
33987;SDS011;37428;53.580;-1.666;2023-03-01T06:47:26;7.95;;;5.68;;
33987;SDS011;37428;53.580;-1.666;2023-03-01T06:50:28;9.75;;;4.97;;
33987;SDS011;37428;53.580;-1.666;2023-03-01T06:56:51;13.30;;;5.50;;
33987;SDS011;37428;53.580;-1.666;2023-03-01T06:59:55;9.70;;;4.97;;
33987;SDS011;37428;53.580;-1.666;2023-03-01T07:02:58;7.70;;;5.90;;
33987;SDS011;37428;53.580;-1.666;2023-03-01T07:06:01;9.25;;;5.38;;
33987;SDS011;37428;53.580;-1.666;2023-03-01T07:09:08;10.30;;;4.90;;
33987;SDS011;37428;53.580;-1.666;2023-03-01T07:12:20;12.05;;;5.03;;
33987;SDS011;37428;53.580;-1.666;2023-03-01T07:19:03;10.27;;;3.80;;
33987;SDS011;37428;53.580;-1.666;2023-03-01T07:22:05;5.30;;;2.53;;
33987;SDS011;37428;53.580;-1.666;2023-03-01T07:25:10;8.25;;;3.17;;
33987;SDS011;37428;53.580;-1.666;2023-03-01T07:28:16;6.65;;;2.30;;
33987;SDS011;37428;53.580;-1.666;2023-03-01T07:31:20;4.40;;;3.67;;
33987;SDS011;37428;53.580;-1.666;2023-03-01T07:34:22;9.75;;;2.83;;
33987;SDS011;37428;53.580;-1.666;2023-03-01T07:37:24;8.32;;;2.40;;
33987;SDS011;37428;53.580;-1.666;2023-03-01T07:40:28;9.55;;;2.80;;
33987;SDS011;37428;53.580;-1.666;2023-03-01T07:43:30;8.93;;;2.47;;
33987;SDS011;37428;53.580;-1.666;2023-03-01T07:46:34;7.40;;;2.65;;
33987;SDS011;37428;53.580;-1.666;2023-03-01T07:49:37;5.38;;;2.60;;
33987;SDS011;37428;53.580;-1.666;2023-03-01T07:52:41;5.95;;;2.00;;
33987;SDS011;37428;53.580;-1.666;2023-03-01T07:55:45;7.88;;;3.00;;
33987;SDS011;37428;53.580;-1.666;2023-03-01T07:58:58;8.38;;;3.92;;
33987;SDS011;37428;53.580;-1.666;2023-03-01T08:02:10;6.38;;;2.53;;
33987;SDS011;37428;53.580;-1.666;2023-03-01T08:05:15;3.30;;;2.38;;
33987;SDS011;37428;53.580;-1.666;2023-03-01T08:08:17;7.00;;;2.05;;
33987;SDS011;37428;53.580;-1.666;2023-03-01T08:11:21;7.53;;;1.92;;
33987;SDS011;37428;53.580;-1.666;2023-03-01T08:14:34;5.28;;;2.08;;
33987;SDS011;37428;53.580;-1.666;2023-03-01T08:17:36;8.98;;;2.40;;
33987;SDS011;37428;53.580;-1.666;2023-03-01T08:20:52;5.82;;;2.50;;
33987;SDS011;37428;53.580;-1.666;2023-03-01T08:23:54;4.07;;;1.90;;
33987;SDS011;37428;53.580;-1.666;2023-03-01T08:27:00;6.97;;;2.10;;
33987;SDS011;37428;53.580;-1.666;2023-03-01T08:30:03;7.05;;;1.95;;
33987;SDS011;37428;53.580;-1.666;2023-03-01T08:33:15;7.28;;;1.75;;
33987;SDS011;37428;53.580;-1.666;2023-03-01T08:36:19;6.20;;;2.30;;
33987;SDS011;37428;53.580;-1.666;2023-03-01T08:39:23;5.85;;;1.75;;
33987;SDS011;37428;53.580;-1.666;2023-03-01T08:42:27;10.30;;;1.98;;
33987;SDS011;37428;53.580;-1.666;2023-03-01T08:45:32;5.03;;;1.90;;
33987;SDS011;37428;53.580;-1.666;2023-03-01T08:48:36;6.65;;;2.08;;
33987;SDS011;37428;53.580;-1.666;2023-03-01T08:51:38;5.38;;;1.63;;
33987;SDS011;37428;53.580;-1.666;2023-03-01T08:54:41;5.60;;;2.10;;
33987;SDS011;37428;53.580;-1.666;2023-03-01T08:57:44;6.53;;;2.28;;
33987;SDS011;37428;53.580;-1.666;2023-03-01T09:00:48;2.53;;;1.83;;
33987;SDS011;37428;53.580;-1.666;2023-03-01T09:03:50;7.15;;;2.22;;
33987;SDS011;37428;53.580;-1.666;2023-03-01T09:10:07;6.82;;;1.70;;
33987;SDS011;37428;53.580;-1.666;2023-03-01T09:13:13;4.32;;;1.92;;
33987;SDS011;37428;53.580;-1.666;2023-03-01T09:16:16;9.45;;;3.35;;
33987;SDS011;37428;53.580;-1.666;2023-03-01T09:19:20;8.40;;;3.13;;
33987;SDS011;37428;53.580;-1.666;2023-03-01T09:22:28;15.07;;;3.25;;
33987;SDS011;37428;53.580;-1.666;2023-03-01T09:25:30;6.82;;;2.75;;
33987;SDS011;37428;53.580;-1.666;2023-03-01T09:28:36;6.97;;;3.58;;
33987;SDS011;37428;53.580;-1.666;2023-03-01T09:31:46;8.32;;;3.10;;
33987;SDS011;37428;53.580;-1.666;2023-03-01T09:34:48;9.05;;;3.33;;
33987;SDS011;37428;53.580;-1.666;2023-03-01T09:38:10;3.80;;;2.22;;
33987;SDS011;37428;53.580;-1.666;2023-03-01T09:41:58;4.35;;;2.20;;
33987;SDS011;37428;53.580;-1.666;2023-03-01T09:45:06;4.90;;;2.45;;
33987;SDS011;37428;53.580;-1.666;2023-03-01T09:48:13;8.15;;;2.60;;
33987;SDS011;37428;53.580;-1.666;2023-03-01T09:51:19;6.35;;;2.10;;
33987;SDS011;37428;53.580;-1.666;2023-03-01T09:54:29;6.13;;;2.22;;
33987;SDS011;37428;53.580;-1.666;2023-03-01T09:57:33;11.73;;;2.55;;
33987;SDS011;37428;53.580;-1.666;2023-03-01T10:00:43;7.75;;;2.58;;
33987;SDS011;37428;53.580;-1.666;2023-03-01T10:04:02;6.93;;;2.28;;
33987;SDS011;37428;53.580;-1.666;2023-03-01T10:07:19;5.68;;;1.95;;
33987;SDS011;37428;53.580;-1.666;2023-03-01T10:10:46;3.88;;;1.80;;
33987;SDS011;37428;53.580;-1.666;2023-03-01T10:13:50;5.15;;;2.13;;
33987;SDS011;37428;53.580;-1.666;2023-03-01T10:17:04;3.95;;;1.50;;
33987;SDS011;37428;53.580;-1.666;2023-03-01T10:20:15;7.20;;;1.48;;
33987;SDS011;37428;53.580;-1.666;2023-03-01T10:23:21;3.25;;;1.00;;
33987;SDS011;37428;53.580;-1.666;2023-03-01T10:26:35;4.90;;;1.80;;
33987;SDS011;37428;53.580;-1.666;2023-03-01T10:29:46;5.28;;;1.17;;
33987;SDS011;37428;53.580;-1.666;2023-03-01T10:32:56;5.53;;;1.40;;
33987;SDS011;37428;53.580;-1.666;2023-03-01T10:36:05;5.65;;;1.33;;
33987;SDS011;37428;53.580;-1.666;2023-03-01T10:39:13;2.47;;;1.52;;
33987;SDS011;37428;53.580;-1.666;2023-03-01T10:42:19;3.28;;;1.58;;
33987;SDS011;37428;53.580;-1.666;2023-03-01T10:45:33;6.43;;;2.42;;
33987;SDS011;37428;53.580;-1.666;2023-03-01T10:48:38;4.30;;;3.45;;
33987;SDS011;37428;53.580;-1.666;2023-03-01T10:51:47;4.82;;;3.40;;
33987;SDS011;37428;53.580;-1.666;2023-03-01T10:54:53;3.88;;;2.38;;
33987;SDS011;37428;53.580;-1.666;2023-03-01T10:58:06;4.07;;;2.78;;
33987;SDS011;37428;53.580;-1.666;2023-03-01T11:01:24;8.00;;;1.90;;
33987;SDS011;37428;53.580;-1.666;2023-03-01T11:04:28;5.30;;;1.20;;
33987;SDS011;37428;53.580;-1.666;2023-03-01T11:07:31;2.88;;;1.17;;
33987;SDS011;37428;53.580;-1.666;2023-03-01T11:10:48;2.60;;;1.40;;
33987;SDS011;37428;53.580;-1.666;2023-03-01T11:13:52;4.15;;;1.70;;
33987;SDS011;37428;53.580;-1.666;2023-03-01T11:17:00;7.25;;;2.13;;
33987;SDS011;37428;53.580;-1.666;2023-03-01T11:20:19;3.10;;;1.30;;
33987;SDS011;37428;53.580;-1.666;2023-03-01T11:23:27;3.92;;;1.75;;
33987;SDS011;37428;53.580;-1.666;2023-03-01T11:26:30;4.15;;;1.77;;
33987;SDS011;37428;53.580;-1.666;2023-03-01T11:29:36;2.72;;;1.45;;
33987;SDS011;37428;53.580;-1.666;2023-03-01T11:32:42;4.35;;;1.65;;
33987;SDS011;37428;53.580;-1.666;2023-03-01T11:35:53;6.97;;;1.23;;
33987;SDS011;37428;53.580;-1.666;2023-03-01T11:39:02;5.65;;;1.55;;
33987;SDS011;37428;53.580;-1.666;2023-03-01T11:42:14;2.83;;;1.33;;
33987;SDS011;37428;53.580;-1.666;2023-03-01T11:45:23;5.57;;;1.00;;
33987;SDS011;37428;53.580;-1.666;2023-03-01T11:48:34;6.35;;;1.00;;
33987;SDS011;37428;53.580;-1.666;2023-03-01T11:51:51;9.25;;;1.08;;
33987;SDS011;37428;53.580;-1.666;2023-03-01T11:55:06;4.43;;;0.90;;
33987;SDS011;37428;53.580;-1.666;2023-03-01T11:58:26;1.83;;;0.70;;
33987;SDS011;37428;53.580;-1.666;2023-03-01T12:01:44;7.10;;;0.75;;
33987;SDS011;37428;53.580;-1.666;2023-03-01T12:05:16;3.63;;;1.48;;
33987;SDS011;37428;53.580;-1.666;2023-03-01T12:08:38;4.60;;;0.60;;
33987;SDS011;37428;53.580;-1.666;2023-03-01T12:12:38;2.35;;;0.60;;
33987;SDS011;37428;53.580;-1.666;2023-03-01T12:15:40;0.63;;;0.57;;
33987;SDS011;37428;53.580;-1.666;2023-03-01T12:19:00;2.45;;;0.90;;
33987;SDS011;37428;53.580;-1.666;2023-03-01T12:22:18;2.83;;;0.70;;
33987;SDS011;37428;53.580;-1.666;2023-03-01T12:25:35;5.15;;;1.17;;
33987;SDS011;37428;53.580;-1.666;2023-03-01T12:28:44;2.90;;;0.82;;
33987;SDS011;37428;53.580;-1.666;2023-03-01T12:32:02;3.03;;;1.15;;
33987;SDS011;37428;53.580;-1.666;2023-03-01T12:35:26;4.68;;;1.02;;
33987;SDS011;37428;53.580;-1.666;2023-03-01T12:38:49;2.63;;;1.23;;
33987;SDS011;37428;53.580;-1.666;2023-03-01T12:42:03;5.93;;;1.55;;
33987;SDS011;37428;53.580;-1.666;2023-03-01T12:45:21;4.07;;;0.85;;
33987;SDS011;37428;53.580;-1.666;2023-03-01T12:48:38;4.05;;;0.82;;
33987;SDS011;37428;53.580;-1.666;2023-03-01T12:51:46;2.90;;;0.82;;
33987;SDS011;37428;53.580;-1.666;2023-03-01T12:54:53;3.97;;;1.23;;
33987;SDS011;37428;53.580;-1.666;2023-03-01T12:58:03;4.07;;;1.08;;
33987;SDS011;37428;53.580;-1.666;2023-03-01T13:01:16;5.90;;;1.58;;
33987;SDS011;37428;53.580;-1.666;2023-03-01T13:04:27;3.45;;;0.80;;
33987;SDS011;37428;53.580;-1.666;2023-03-01T13:07:44;6.30;;;1.15;;
33987;SDS011;37428;53.580;-1.666;2023-03-01T13:10:58;3.72;;;0.93;;
33987;SDS011;37428;53.580;-1.666;2023-03-01T13:17:45;4.10;;;0.93;;
33987;SDS011;37428;53.580;-1.666;2023-03-01T13:20:48;3.90;;;0.60;;
33987;SDS011;37428;53.580;-1.666;2023-03-01T13:23:52;2.00;;;0.60;;
33987;SDS011;37428;53.580;-1.666;2023-03-01T13:30:40;2.97;;;0.75;;
33987;SDS011;37428;53.580;-1.666;2023-03-01T13:33:43;5.22;;;0.75;;
33987;SDS011;37428;53.580;-1.666;2023-03-01T13:36:47;2.85;;;0.70;;
33987;SDS011;37428;53.580;-1.666;2023-03-01T13:39:50;1.42;;;0.60;;
33987;SDS011;37428;53.580;-1.666;2023-03-01T13:45:56;3.93;;;1.43;;
33987;SDS011;37428;53.580;-1.666;2023-03-01T13:49:02;3.13;;;2.05;;
33987;SDS011;37428;53.580;-1.666;2023-03-01T13:55:14;1.67;;;0.80;;
33987;SDS011;37428;53.580;-1.666;2023-03-01T13:58:21;2.88;;;0.70;;
33987;SDS011;37428;53.580;-1.666;2023-03-01T14:01:28;7.20;;;0.90;;
33987;SDS011;37428;53.580;-1.666;2023-03-01T14:04:33;1.50;;;0.60;;
33987;SDS011;37428;53.580;-1.666;2023-03-01T14:07:36;2.08;;;0.60;;
33987;SDS011;37428;53.580;-1.666;2023-03-01T14:10:42;4.30;;;0.70;;
33987;SDS011;37428;53.580;-1.666;2023-03-01T14:14:09;2.50;;;1.80;;
33987;SDS011;37428;53.580;-1.666;2023-03-01T14:21:01;2.15;;;0.70;;
33987;SDS011;37428;53.580;-1.666;2023-03-01T14:24:16;1.83;;;0.60;;
33987;SDS011;37428;53.580;-1.666;2023-03-01T14:27:20;3.90;;;0.70;;
33987;SDS011;37428;53.580;-1.666;2023-03-01T14:30:23;3.15;;;0.77;;
33987;SDS011;37428;53.580;-1.666;2023-03-01T14:33:28;3.63;;;1.33;;
33987;SDS011;37428;53.580;-1.666;2023-03-01T14:36:33;4.38;;;1.70;;
33987;SDS011;37428;53.580;-1.666;2023-03-01T14:42:39;2.08;;;0.50;;
33987;SDS011;37428;53.580;-1.666;2023-03-01T14:45:48;3.20;;;0.50;;
33987;SDS011;37428;53.580;-1.666;2023-03-01T14:48:56;6.53;;;1.02;;
33987;SDS011;37428;53.580;-1.666;2023-03-01T14:52:04;3.83;;;0.60;;
33987;SDS011;37428;53.580;-1.666;2023-03-01T14:55:13;3.25;;;0.50;;
33987;SDS011;37428;53.580;-1.666;2023-03-01T14:58:18;3.95;;;0.75;;
33987;SDS011;37428;53.580;-1.666;2023-03-01T15:01:24;2.53;;;0.80;;
33987;SDS011;37428;53.580;-1.666;2023-03-01T15:04:27;2.40;;;0.60;;
33987;SDS011;37428;53.580;-1.666;2023-03-01T15:07:33;4.35;;;1.35;;
33987;SDS011;37428;53.580;-1.666;2023-03-01T15:10:37;3.75;;;0.73;;
33987;SDS011;37428;53.580;-1.666;2023-03-01T15:13:43;2.40;;;0.63;;
33987;SDS011;37428;53.580;-1.666;2023-03-01T15:16:46;8.25;;;1.20;;
33987;SDS011;37428;53.580;-1.666;2023-03-01T15:19:52;3.25;;;0.55;;
33987;SDS011;37428;53.580;-1.666;2023-03-01T15:22:55;4.00;;;0.95;;
33987;SDS011;37428;53.580;-1.666;2023-03-01T15:25:58;4.38;;;0.57;;
33987;SDS011;37428;53.580;-1.666;2023-03-01T15:29:00;2.30;;;0.47;;
33987;SDS011;37428;53.580;-1.666;2023-03-01T15:32:22;6.32;;;1.20;;
33987;SDS011;37428;53.580;-1.666;2023-03-01T15:35:39;2.97;;;0.80;;
33987;SDS011;37428;53.580;-1.666;2023-03-01T15:38:53;5.07;;;0.93;;
33987;SDS011;37428;53.580;-1.666;2023-03-01T15:41:56;2.05;;;0.63;;
33987;SDS011;37428;53.580;-1.666;2023-03-01T15:45:20;3.88;;;0.50;;
33987;SDS011;37428;53.580;-1.666;2023-03-01T15:48:29;7.47;;;0.50;;
33987;SDS011;37428;53.580;-1.666;2023-03-01T15:54:36;4.90;;;0.80;;
33987;SDS011;37428;53.580;-1.666;2023-03-01T15:57:41;4.13;;;0.68;;
33987;SDS011;37428;53.580;-1.666;2023-03-01T16:00:44;1.73;;;0.80;;
33987;SDS011;37428;53.580;-1.666;2023-03-01T16:03:48;4.15;;;0.90;;
33987;SDS011;37428;53.580;-1.666;2023-03-01T16:06:52;1.77;;;0.50;;
33987;SDS011;37428;53.580;-1.666;2023-03-01T16:09:55;3.08;;;0.55;;
33987;SDS011;37428;53.580;-1.666;2023-03-01T16:12:57;1.48;;;0.47;;
33987;SDS011;37428;53.580;-1.666;2023-03-01T16:15:59;6.80;;;0.85;;
33987;SDS011;37428;53.580;-1.666;2023-03-01T16:19:01;3.05;;;1.05;;
33987;SDS011;37428;53.580;-1.666;2023-03-01T16:22:05;3.95;;;0.90;;
33987;SDS011;37428;53.580;-1.666;2023-03-01T16:25:08;3.80;;;1.05;;
33987;SDS011;37428;53.580;-1.666;2023-03-01T16:28:13;2.08;;;0.52;;
33987;SDS011;37428;53.580;-1.666;2023-03-01T16:31:20;2.17;;;0.63;;
33987;SDS011;37428;53.580;-1.666;2023-03-01T16:34:22;3.72;;;0.85;;
33987;SDS011;37428;53.580;-1.666;2023-03-01T16:37:26;3.05;;;0.82;;
33987;SDS011;37428;53.580;-1.666;2023-03-01T16:40:43;2.10;;;0.90;;
33987;SDS011;37428;53.580;-1.666;2023-03-01T16:43:49;7.22;;;1.30;;
33987;SDS011;37428;53.580;-1.666;2023-03-01T16:46:52;4.57;;;1.27;;
33987;SDS011;37428;53.580;-1.666;2023-03-01T16:49:55;5.28;;;1.00;;
33987;SDS011;37428;53.580;-1.666;2023-03-01T16:52:59;6.47;;;1.75;;
33987;SDS011;37428;53.580;-1.666;2023-03-01T16:56:04;3.55;;;1.40;;
33987;SDS011;37428;53.580;-1.666;2023-03-01T16:59:09;2.30;;;0.80;;
33987;SDS011;37428;53.580;-1.666;2023-03-01T17:02:12;2.58;;;0.70;;
33987;SDS011;37428;53.580;-1.666;2023-03-01T17:05:15;3.50;;;1.90;;
33987;SDS011;37428;53.580;-1.666;2023-03-01T17:11:35;9.85;;;7.43;;
33987;SDS011;37428;53.580;-1.666;2023-03-01T17:14:50;14.02;;;9.00;;
33987;SDS011;37428;53.580;-1.666;2023-03-01T17:17:54;30.17;;;19.13;;
33987;SDS011;37428;53.580;-1.666;2023-03-01T17:20:56;8.27;;;4.45;;
33987;SDS011;37428;53.580;-1.666;2023-03-01T17:27:04;6.63;;;3.67;;
33987;SDS011;37428;53.580;-1.666;2023-03-01T17:30:15;5.15;;;1.60;;
33987;SDS011;37428;53.580;-1.666;2023-03-01T17:33:25;5.72;;;2.13;;
33987;SDS011;37428;53.580;-1.666;2023-03-01T17:36:41;6.63;;;2.28;;
33987;SDS011;37428;53.580;-1.666;2023-03-01T17:39:47;3.83;;;0.80;;
33987;SDS011;37428;53.580;-1.666;2023-03-01T17:43:10;5.22;;;1.15;;
33987;SDS011;37428;53.580;-1.666;2023-03-01T17:46:13;7.65;;;1.30;;
33987;SDS011;37428;53.580;-1.666;2023-03-01T17:49:17;4.43;;;1.25;;
33987;SDS011;37428;53.580;-1.666;2023-03-01T17:52:19;7.47;;;1.50;;
33987;SDS011;37428;53.580;-1.666;2023-03-01T17:55:24;13.40;;;1.60;;
33987;SDS011;37428;53.580;-1.666;2023-03-01T17:58:28;8.77;;;1.77;;
33987;SDS011;37428;53.580;-1.666;2023-03-01T18:01:31;9.02;;;1.20;;
33987;SDS011;37428;53.580;-1.666;2023-03-01T18:04:35;7.45;;;1.63;;
33987;SDS011;37428;53.580;-1.666;2023-03-01T18:10:41;8.65;;;2.00;;
33987;SDS011;37428;53.580;-1.666;2023-03-01T18:13:44;9.50;;;1.63;;
33987;SDS011;37428;53.580;-1.666;2023-03-01T18:16:48;11.07;;;1.83;;
33987;SDS011;37428;53.580;-1.666;2023-03-01T18:19:50;5.75;;;1.63;;
33987;SDS011;37428;53.580;-1.666;2023-03-01T18:22:52;6.72;;;1.50;;
33987;SDS011;37428;53.580;-1.666;2023-03-01T18:25:58;13.18;;;2.63;;
33987;SDS011;37428;53.580;-1.666;2023-03-01T18:29:00;11.60;;;2.13;;
33987;SDS011;37428;53.580;-1.666;2023-03-01T18:32:04;9.52;;;2.33;;
33987;SDS011;37428;53.580;-1.666;2023-03-01T18:35:07;13.95;;;2.70;;
33987;SDS011;37428;53.580;-1.666;2023-03-01T18:38:09;8.52;;;2.22;;
33987;SDS011;37428;53.580;-1.666;2023-03-01T18:41:12;10.00;;;2.90;;
33987;SDS011;37428;53.580;-1.666;2023-03-01T18:44:15;12.05;;;2.85;;
33987;SDS011;37428;53.580;-1.666;2023-03-01T18:47:19;12.52;;;3.00;;
33987;SDS011;37428;53.580;-1.666;2023-03-01T18:50:23;8.43;;;3.30;;
33987;SDS011;37428;53.580;-1.666;2023-03-01T18:53:25;8.63;;;2.15;;
33987;SDS011;37428;53.580;-1.666;2023-03-01T18:56:29;9.13;;;2.22;;
33987;SDS011;37428;53.580;-1.666;2023-03-01T18:59:35;7.28;;;1.60;;
33987;SDS011;37428;53.580;-1.666;2023-03-01T19:02:43;7.22;;;1.92;;
33987;SDS011;37428;53.580;-1.666;2023-03-01T19:05:51;8.25;;;1.63;;
33987;SDS011;37428;53.580;-1.666;2023-03-01T19:08:53;5.18;;;1.63;;
33987;SDS011;37428;53.580;-1.666;2023-03-01T19:11:56;7.93;;;2.65;;
33987;SDS011;37428;53.580;-1.666;2023-03-01T19:15:01;16.13;;;9.77;;
33987;SDS011;37428;53.580;-1.666;2023-03-01T19:21:06;10.60;;;5.84;;
33987;SDS011;37428;53.580;-1.666;2023-03-01T19:24:09;17.27;;;9.98;;
33987;SDS011;37428;53.580;-1.666;2023-03-01T19:27:13;15.75;;;7.55;;